Virtual Norwegian is not affiliated with Norwegian Air Shuttle in any way.
If you are looking for the real "Norwegian", or you wish to book Norwegian flights, please visit Norwegian.com


We use cookies to ensure you get the best experience on our website.   ACCEPT

LBWN - VAR - Varna (Varna)

General Info Alternate Airport
ICAO: LBWN Elevation: 230 ft ICAO: LBBG
IATA: VAR Country: Bulgaria IATA: BOJ
City: Varna Charts: Log in to view charts City: Bourgas
Name: Varna Hub: No Name Burgas
General Info
ICAO: LBWN
IATA: VAR
City: Varna
Name: Varna
Elevation: 230 ft
Country: Bulgaria
Charts: Log in to view charts
Hub: No
 
Alternate Airport
ICAO: LBBG
IATA: BOJ
City: Bourgas
Name: Burgas

Weather
150330Z 35003KT 300V010 9999 OVC016 13/12 Q1020 TEMPO 5000 BR
Weather
150330Z 35003KT 300V010 9999 OVC016 13/12 Q1020 TEMPO 5000 BR

Runway Info
09
Length ILS/LOC Course
2517 m 109.90 093
27
Length ILS/LOC Heading
2517 m N/A 277

NOTAMs
NOTAMs currently unavailable.
NOTAMs
NOTAMs currently unavailable

Route map
Airport
Airport (hub)